Flight Track Log - Related Links

Times and Time Zones

All times are in EST time to prevent confusion due to time zone crossing. See the GTI4241 flight status page for this flight to view local times or setup timezone preferences in your user account.

Time Position Orientation Groundspeed Altitude Reporting Facility
EST Latitude Longitude Course Direction KTS MPH feet Rate Location/Type
Tue 01:27:00 AM 41.1364 -73.9624 288° West  Level FlightAware Approximate
Tue 01:27:13 AM 40.8238 -73.7096 288° West 341 392 16,500  Level FlightAware ADS-B (KSNC)
Tue 01:27:55 AM 40.8895 -73.7252 350° North 340 391 18,700 3,127 Climbing FlightAware ADS-B (KSNC)
Tue 01:28:24 AM 40.9333 -73.7469 339° North 318 366 20,200 2,933 Climbing FlightAware ADS-B (KSNC)
Tue 01:28:40 AM 40.9516 -73.7654 323° Northwest 306 352 20,900 1,545 Climbing FlightAware ADS-B (KSNC)
Tue 01:29:30 AM 40.9847 -73.8278 323° Northwest 314 361 21,900 600 Climbing New York Center
Tue 01:30:30 AM 40.9878 -73.9461 272° West 279 321 22,000 101 Climbing New York Center
Tue 01:31:29 AM 40.9844 -74.0642 268° West 299 344 22,100 1,100 Climbing New York Center
Tue 01:32:30 AM 40.9831 -74.1822 269° West 310 357 24,200 1,983 Climbing New York Center
Tue 01:33:30 AM 40.9756 -74.3000 265° West 322 371 26,100 1,800 Climbing New York Center
Tue 01:34:30 AM 40.9697 -74.4261 267° West 339 390 27,800 1,500 Climbing New York Center
Tue 01:35:30 AM 40.9633 -74.5575 266° West 347 399 29,100 1,300 Climbing New York Center
Tue 01:36:30 AM 40.9589 -74.6919 268° West 358 412 30,400 1,400 Climbing New York Center
Tue 01:37:30 AM 40.9522 -74.8289 266° West 372 428 31,900 1,450 Climbing New York Center
Tue 01:38:30 AM 40.9453 -74.9686 266° West 377 434 33,300 1,500 Climbing New York Center
Tue 01:39:30 AM 40.9400 -75.1194 267° West 384 442 34,900 1,233 Climbing New York Center
Tue 01:40:56 AM 40.9279 -75.3188 267° West 369 425 36,300 900 Climbing FlightAware ADS-B
Tue 01:41:30 AM 40.9239 -75.3767 267° West 384 442 36,700 702 Climbing New York Center
Tue 01:42:30 AM 40.9164 -75.5106 266° West 384 442 37,400 650 Climbing New York Center
Tue 01:43:30 AM 40.9111 -75.6447 267° West 384 442 38,000 300 Climbing New York Center
Tue 01:44:30 AM 40.9028 -75.7925 266° West 379 436 38,000  Level New York Center
Tue 01:45:30 AM 40.8950 -75.9236 266° West 374 430 38,000  Level New York Center
Tue 01:46:30 AM 40.8850 -76.0575 264° West 369 425 38,000  Level New York Center
Tue 01:47:30 AM 40.8769 -76.1886 265° West 364 419 38,000  Level New York Center
Tue 01:48:30 AM 40.8689 -76.3197 265° West 364 419 38,000  Level New York Center
Tue 01:49:30 AM 40.8603 -76.4533 265° West 364 419 38,000  Level New York Center
Tue 01:50:30 AM 40.8558 -76.5875 268° West 364 419 38,000  Level New York Center
Tue 01:51:30 AM 40.8453 -76.7183 264° West 364 419 38,000  Level New York Center
Tue 01:52:30 AM 40.8364 -76.8547 265° West 364 419 38,000  Level New York Center
Tue 01:53:30 AM 40.8294 -76.9886 266° West 364 419 38,000  Level New York Center
Tue 01:54:30 AM 40.8181 -77.1219 264° West 364 419 38,000  Level New York Center
Tue 01:56:22 AM 40.8028 -77.3661 265° West 374 430 38,000  Level Cleveland Center
Tue 01:57:22 AM 40.7939 -77.5033 265° West 375 432 38,000  Level Cleveland Center
Tue 01:58:22 AM 40.7833 -77.6428 264° West 380 437 38,000  Level Cleveland Center
Tue 01:59:22 AM 40.7739 -77.7792 265° West 378 435 38,000  Level Cleveland Center
Tue 02:00:23 AM 40.7625 -77.9164 264° West 378 435 38,000  Level Cleveland Center
Tue 02:01:23 AM 40.7531 -78.0539 265° West 377 434 38,000  Level Cleveland Center
Tue 02:02:23 AM 40.7428 -78.1900 264° West 376 433 38,000  Level Cleveland Center
Tue 02:03:23 AM 40.7322 -78.3275 264° West 375 432 38,000  Level Cleveland Center
Tue 02:04:23 AM 40.7219 -78.4653 264° West 375 432 38,000  Level Cleveland Center
Tue 02:05:23 AM 40.7108 -78.6017 264° West 375 432 38,000  Level Cleveland Center
Tue 02:06:23 AM 40.7000 -78.7383 264° West 375 432 38,000  Level Cleveland Center
Tue 02:07:23 AM 40.6878 -78.8756 263° West 375 432 38,000  Level Cleveland Center
Tue 02:13:36 AM 40.6123 -79.7437 263° West 382 440 38,000  Level FlightAware ADS-B (EPLB / LUZ)
Tue 02:14:26 AM 40.6017 -79.8593 263° West 384 442 38,000  Level FlightAware ADS-B (EPLB / LUZ)
Tue 02:15:03 AM 40.5950 -79.9310 263° West 384 442 38,000  Level FlightAware ADS-B (CYYZ)
Tue 02:15:34 AM 40.5868 -80.0189 263° West 385 443 38,000  Level FlightAware ADS-B (CYYZ)
Tue 02:15:51 AM 40.5831 -80.0583 263° West 385 443 38,000  Level FlightAware ADS-B
Tue 02:16:04 AM 40.5804 -80.0883 263° West 385 443 38,000  Level FlightAware ADS-B (CYYZ)
Tue 02:16:22 AM 40.5768 -80.1256 263° West 385 443 38,000  Level FlightAware ADS-B
Tue 02:17:00 AM 40.5685 -80.2137 263° West 385 443 38,000  Level FlightAware ADS-B
Tue 02:17:31 AM 40.5613 -80.2878 263° West 385 443 38,000  Level FlightAware ADS-B
Tue 02:18:01 AM 40.5544 -80.3597 263° West 385 443 38,000  Level FlightAware ADS-B
Tue 02:18:31 AM 40.5477 -80.4293 263° West 383 441 38,000  Level FlightAware ADS-B
Tue 02:19:11 AM 40.5389 -80.5214 263° West 383 441 38,000  Level FlightAware ADS-B
Tue 02:19:42 AM 40.5325 -80.5860 263° West 382 440 38,000  Level FlightAware ADS-B
Tue 02:20:18 AM 40.5250 -80.6617 263° West 382 440 38,000  Level Indianapolis Center
Tue 02:21:18 AM 40.5119 -80.8011 263° West 382 440 38,000  Level Indianapolis Center
Tue 02:22:25 AM 40.4978 -80.9417 262° West 382 440 38,000  Level Cleveland Center
Tue 02:23:25 AM 40.4836 -81.0786 262° West 382 440 38,000  Level Cleveland Center
Tue 02:24:26 AM 40.4692 -81.2150 262° West 381 438 38,000  Level Cleveland Center
Tue 02:25:26 AM 40.4547 -81.3525 262° West 381 438 38,000  Level Cleveland Center
Tue 02:26:26 AM 40.4403 -81.4939 262° West 377 434 38,000  Level Cleveland Center
Tue 02:27:26 AM 40.4247 -81.6331 262° West 378 435 38,000  Level Cleveland Center
Tue 02:28:19 AM 40.4125 -81.7500 262° West 379 436 38,000  Level Indianapolis Center
Tue 02:29:19 AM 40.3972 -81.8886 262° West 379 436 38,000  Level Indianapolis Center
Tue 02:30:19 AM 40.3819 -82.0261 262° West 379 436 38,000  Level Indianapolis Center
Tue 02:31:19 AM 40.3669 -82.1642 262° West 379 436 38,000  Level Indianapolis Center
Tue 02:32:20 AM 40.3481 -82.3169 261° West 379 436 38,000  Level Indianapolis Center
Tue 02:34:26 AM 40.3167 -82.5892 261° West 378 435 38,000  Level Cleveland Center
Tue 02:35:27 AM 40.3011 -82.7244 261° West 378 435 38,000  Level Cleveland Center
Tue 02:36:27 AM 40.2850 -82.8611 261° West 378 435 38,000  Level Cleveland Center
Tue 02:37:27 AM 40.2686 -82.9961 261° West 378 435 38,000  Level Cleveland Center
Tue 02:38:20 AM 40.2522 -83.1314 261° West 379 436 38,000  Level Indianapolis Center
Tue 02:39:21 AM 40.2361 -83.2675 261° West 379 436 38,000  Level Indianapolis Center
Tue 02:40:21 AM 40.2192 -83.4019 261° West 379 436 38,000  Level Indianapolis Center
Tue 02:41:21 AM 40.2025 -83.5364 261° West 379 436 38,000  Level Indianapolis Center
Tue 02:42:21 AM 40.1858 -83.6697 261° West 379 436 38,000  Level Indianapolis Center
Tue 02:43:21 AM 40.1683 -83.8036 260° West 379 436 38,000  Level Indianapolis Center
Tue 02:44:21 AM 40.1517 -83.9394 261° West 379 436 38,000  Level Indianapolis Center
Tue 02:45:21 AM 40.1339 -84.0733 260° West 379 436 38,000  Level Indianapolis Center
Tue 02:46:22 AM 40.1150 -84.2094 260° West 379 436 38,000  Level Indianapolis Center
Tue 02:47:22 AM 40.0978 -84.3458 261° West 380 437 38,000  Level Indianapolis Center
Tue 02:48:22 AM 40.0797 -84.4811 260° West 380 437 38,000  Level Indianapolis Center
Tue 02:49:22 AM 40.0619 -84.6175 260° West 381 438 38,000  Level Indianapolis Center
Tue 02:50:22 AM 40.0439 -84.7528 260° West 380 437 38,000  Level Indianapolis Center
Tue 02:51:22 AM 40.0242 -84.8886 259° West 381 438 38,000  Level Indianapolis Center
Tue 02:57:23 AM 39.9075 -85.7236 259° West 382 440 38,000  Level FlightAware ADS-B
Tue 02:58:32 AM 39.8847 -85.8791 259° West 382 440 38,000  Level FlightAware ADS-B
Tue 02:59:31 AM 39.8651 -86.0120 259° West 382 440 38,000  Level FlightAware ADS-B
Tue 03:00:31 AM 39.8483 -86.1248 259° West 383 441 38,000  Level FlightAware ADS-B
Tue 03:02:40 AM 39.8012 -86.4388 259° West 382 440 38,000  Level FlightAware ADS-B
Tue 03:03:14 AM 39.7895 -86.5154 259° West 382 440 38,000  Level FlightAware ADS-B
Tue 03:03:54 AM 39.7759 -86.6055 259° West 382 440 38,000  Level FlightAware ADS-B
Tue 03:04:34 AM 39.7648 -86.6774 259° West 381 438 38,000  Level FlightAware ADS-B
Tue 03:05:05 AM 39.7513 -86.7647 259° West 381 438 38,000  Level FlightAware ADS-B
Tue 03:05:43 AM 39.7381 -86.8495 259° West 379 436 38,000  Level FlightAware ADS-B
Tue 03:07:25 AM 39.7029 -87.0734 259° West 375 432 38,000  Level FlightAware ADS-B
Tue 03:07:55 AM 39.6922 -87.1415 258° West 372 428 38,000  Level FlightAware ADS-B
Tue 03:08:25 AM 39.6820 -87.2070 259° West 371 427 38,000  Level FlightAware ADS-B
Tue 03:08:55 AM 39.6716 -87.2723 258° West 370 426 38,000  Level FlightAware ADS-B
Tue 03:09:25 AM 39.6612 -87.3373 258° West 369 425 38,000  Level FlightAware ADS-B
Tue 03:10:04 AM 39.6476 -87.4214 258° West 367 422 38,000  Level FlightAware ADS-B
Tue 03:11:04 AM 39.6267 -87.5500 258° West 366 421 38,000  Level FlightAware ADS-B
Tue 03:11:35 AM 39.6163 -87.6144 258° West 366 421 38,000  Level FlightAware ADS-B
Tue 03:12:25 AM 39.5985 -87.7241 258° West 367 422 38,000  Level FlightAware ADS-B
Tue 03:13:30 AM 39.5757 -87.8635 258° West 367 422 38,000  Level FlightAware ADS-B
Tue 03:16:35 AM 39.5092 -88.2609 258° West 369 425 38,000  Level FlightAware ADS-B
Tue 03:17:26 AM 39.4917 -88.3644 258° West 369 425 38,000  Level Indianapolis Center
Tue 03:18:26 AM 39.4681 -88.4939 257° West 369 425 38,000  Level Indianapolis Center
Tue 03:19:26 AM 39.4472 -88.6233 258° West 369 425 38,000  Level Indianapolis Center
Tue 03:20:26 AM 39.4250 -88.7533 258° West 369 425 38,000  Level Indianapolis Center
Tue 03:21:26 AM 39.4022 -88.8828 257° West 369 425 38,000  Level Indianapolis Center
Tue 03:22:26 AM 39.3783 -89.0150 257° West 371 427 38,000  Level Indianapolis Center
Tue 03:23:37 AM 39.3539 -89.1619 258° West 371 427 38,000  Level Kansas City Center
Tue 03:24:37 AM 39.3303 -89.2922 257° West 371 427 38,000  Level Kansas City Center
Tue 03:25:37 AM 39.3078 -89.4197 257° West 371 427 38,000  Level Kansas City Center
Tue 03:26:38 AM 39.2844 -89.5469 257° West 369 425 38,000  Level Kansas City Center
Tue 03:27:38 AM 39.2611 -89.6742 257° West 369 425 38,000  Level Kansas City Center
Tue 03:28:38 AM 39.2375 -89.8014 257° West 368 423 38,000  Level Kansas City Center
Tue 03:29:38 AM 39.2147 -89.9294 257° West 368 423 38,000  Level Kansas City Center
Tue 03:30:39 AM 39.1911 -90.0581 257° West 369 425 38,000  Level Kansas City Center
Tue 03:31:39 AM 39.1661 -90.1878 256° West 370 426 38,000  Level Kansas City Center
Tue 03:32:39 AM 39.1419 -90.3183 257° West 373 429 38,000  Level Kansas City Center
Tue 03:33:39 AM 39.1169 -90.4489 256° West 375 432 38,000  Level Kansas City Center
Tue 03:34:40 AM 39.0919 -90.5811 256° West 380 437 38,000  Level Kansas City Center
Tue 03:35:41 AM 39.0678 -90.7119 257° West 381 438 38,000  Level Kansas City Center
Tue 03:36:40 AM 39.0414 -90.8431 256° West 381 438 38,000  Level Kansas City Center
Tue 03:37:41 AM 39.0161 -90.9772 256° West 384 442 38,000  Level Kansas City Center
Tue 03:38:41 AM 38.9908 -91.1094 256° West 384 442 38,000  Level Kansas City Center
Tue 03:39:43 AM 38.9592 -91.2717 256° West 385 443 38,000  Level Kansas City Center
Tue 03:40:41 AM 38.9311 -91.4050 255° West 387 445 38,000  Level Kansas City Center
Tue 03:41:43 AM 38.9042 -91.5389 256° West 387 445 38,000  Level Kansas City Center
Tue 03:42:44 AM 38.8775 -91.6736 256° West 387 445 38,000  Level Kansas City Center
Tue 03:43:42 AM 38.8517 -91.8089 256° West 387 445 38,000  Level Kansas City Center
Tue 03:44:43 AM 38.8236 -91.9442 255° West 388 447 38,000  Level Kansas City Center
Tue 03:45:44 AM 38.7958 -92.0778 255° West 388 447 38,000  Level Kansas City Center
Tue 03:46:43 AM 38.7681 -92.2111 255° West 388 447 38,000  Level Kansas City Center
Tue 03:47:45 AM 38.7406 -92.3453 255° West 388 447 38,000  Level Kansas City Center
Tue 03:48:44 AM 38.7128 -92.4772 255° West 388 447 38,000  Level Kansas City Center
Tue 03:49:44 AM 38.6844 -92.6092 255° West 388 447 38,000  Level Kansas City Center
Tue 03:50:44 AM 38.6572 -92.7425 255° West 388 447 38,000  Level Kansas City Center
Tue 03:51:45 AM 38.6286 -92.8742 254° West 387 445 38,000  Level Kansas City Center
Tue 03:52:45 AM 38.6000 -93.0056 254° West 387 445 38,000  Level Kansas City Center
Tue 03:53:46 AM 38.5703 -93.1411 254° West 386 444 38,000  Level Kansas City Center
Tue 03:54:46 AM 38.5431 -93.2675 255° West 386 444 38,000  Level Kansas City Center
Tue 03:55:46 AM 38.5156 -93.3992 255° West 385 443 38,000  Level Kansas City Center
Tue 03:56:46 AM 38.4869 -93.5289 254° West 383 441 38,000  Level Kansas City Center
Tue 03:57:48 AM 38.4581 -93.6581 254° West 382 440 38,000  Level Kansas City Center
Tue 03:58:48 AM 38.4289 -93.7853 254° West 379 436 38,000  Level Kansas City Center
Tue 03:59:48 AM 38.4022 -93.9114 255° West 374 430 38,000  Level Kansas City Center
Tue 04:00:50 AM 38.3736 -94.0389 254° West 373 429 38,000  Level Kansas City Center
Tue 04:02:50 AM 38.3169 -94.2897 252° West 373 429 38,000  Level Kansas City Center
Tue 04:03:49 AM 38.2847 -94.4333 254° West 373 429 38,000  Level Kansas City Center
Tue 04:04:52 AM 38.2592 -94.5561 255° West 373 429 38,000  Level Kansas City Center
Tue 04:05:50 AM 38.2406 -94.6817 259° West 374 430 38,000  Level Kansas City Center
Tue 04:06:51 AM 38.2200 -94.8219 259° West 374 430 38,000  Level Kansas City Center
Tue 04:07:51 AM 38.1989 -94.9514 258° West 374 430 38,000  Level Kansas City Center
Tue 04:08:51 AM 38.1789 -95.0769 259° West 374 430 38,000  Level Kansas City Center
Tue 04:09:53 AM 38.1531 -95.2000 255° West 375 432 38,000  Level Kansas City Center
Tue 04:10:54 AM 38.1169 -95.3436 252° West 379 436 38,000  Level Kansas City Center
Tue 04:11:54 AM 38.0867 -95.4683 253° West 380 437 38,000  Level Kansas City Center
Tue 04:12:54 AM 38.0553 -95.5914 252° West 381 438 38,000  Level Kansas City Center
Tue 04:13:54 AM 38.0247 -95.7144 253° West 381 438 38,000  Level Kansas City Center
Tue 04:14:54 AM 37.9889 -95.8567 252° West 381 438 38,000 -100 Level Kansas City Center
Tue 04:15:54 AM 37.9583 -95.9781 252° West 381 438 37,800 -1,050 Descending Kansas City Center
Tue 04:16:54 AM 37.9303 -96.0858 252° West 367 422 35,900 -1,887 Descending Kansas City Center
Tue 04:17:58 AM 37.8981 -96.2111 252° West 362 417 33,900 -1,983 Descending Kansas City Center
Tue 04:18:55 AM 37.8667 -96.3322 252° West 362 417 31,900 -2,288 Descending Kansas City Center
Tue 04:19:56 AM 37.8344 -96.4572 252° West 371 427 29,400 -3,000 Descending Kansas City Center
Tue 04:20:17 AM 37.8197 -96.5200 253° West 379 436 27,800 -4,000 Descending Kansas City Center
Tue 04:20:26 AM 37.8164 -96.5286 244° Southwest 379 436 27,400 -2,308 Descending Kansas City Center
Tue 04:20:56 AM 37.8019 -96.5828 251° West 375 432 26,300 -3,000 Descending Kansas City Center
Tue 04:21:26 AM 37.7819 -96.6614 252° West 370 426 24,400 -2,813 Descending Kansas City Center
Tue 04:22:00 AM 37.7703 -96.7039 251° West 366 421 23,300 -3,344 Descending Kansas City Center
Tue 04:22:27 AM 37.7625 -96.7786 263° West 342 394 21,000 -4,421 Descending Kansas City Center
Tue 04:22:57 AM 37.7633 -96.8228 271° West 341 392 19,100 -4,345 Descending Kansas City Center
Tue 04:23:25 AM 37.7600 -96.8983 267° West 331 381 16,800 -3,738 Descending Kansas City Center
Tue 04:23:58 AM 37.7597 -96.9381 270° West 332 382 15,300 -3,810 Descending Kansas City Center
Tue 04:24:28 AM 37.7567 -97.0100 267° West 322 371 12,800 -3,900 Descending Kansas City Center
Tue 04:24:58 AM 37.7547 -97.0506 267° West 326 375 11,400 -3,300 Descending Kansas City Center
Tue 04:25:28 AM 37.7833 -97.1092 302° West 309 356 9,500 -2,476 Descending Kansas City Center
Tue 04:26:01 AM 37.8011 -97.1389 307° West 308 354 8,800 -1,770 Descending Kansas City Center
Tue 04:26:29 AM 37.8311 -97.1864 309° West 264 304 7,700 -2,690 Descending Kansas City Center
Tue 04:26:59 AM 37.8269 -97.2342 264° West 259 298 6,200 -2,800 Descending Kansas City Center
Tue 04:27:29 AM 37.8000 -97.2547 211° Southwest 260 299 4,900 -2,754 Descending Kansas City Center
Tue 04:28:00 AM 37.7594 -97.2528 178° South 260 299 3,400 -1,800 Descending Kansas City Center
Tue 04:28:29 AM 37.7297 -97.2447 168° South 247 284 3,100 -667 Descending Kansas City Center
Tue 04:29:03 AM 37.6972 -97.2494 187° South 242 278 2,700 -871 Descending Kansas City Center
Tue 04:29:31 AM 37.6742 -97.2561 193° South 186 214 2,200 -1,100 Descending Kansas City Center
Tue 04:30:03 AM 37.6461 -97.2622 190° South 209 241 1,600 -1,125 Descending Kansas City Center
Tue 04:32:00 AM 37.6167 -97.2667 270° West  Level FlightAware Approximate

Login

Don't have an account? Register now (free) for customized features, flight alerts, and more!